Manzanita, California
Current Conditions -  °F | °C
As of 11:05 PM on Friday 19 Dec 2014 (Local Time) from KOVE Reporting Station
Overcast Overcast  
Wind Chill: 11°   Ceiling: 1400
Heat Index: 11°   Visibility: 10mi
Dew Point:   Wind: 9mph
Humidity: 89%   Direction: 130°SE
Pressure: 30.18"   Gusts: NA
Location:  39.3475°N, 121.759°W
Report Text: KOVE 200705Z AUTO 13008KT 10SM OVC014 11/09 A3018 RMK AO2 T01110094
Loading
Personal Weather Stations






























Interactive Weather Map New forecast layout! Learn more

10-Day Weather Forecast

Advertisements
Track Severe Weather on mobile